»·PEaware :: SKW5753 KSFO-KRDD

SKW5753 :: KSFO-KRDD

FLIGHT INFORMATION

Flight Status: Arrived
Operator:
SkyWest Airlines
More flights by this operator :: More flights under this callsign
Pilot: Anonymous 10620 (10620)
Aircraft: CANADAIR CL-600 CRJ-200
(CRJ2)
More flights by this aircraft type
Origin: KSFO San Francisco Intl
United States
Destination: KRDD Redding Mun
United States
More flights between these airports :: More routes between these airports
Route: TRUKN2 DEDHD RBL
File this flight plan on PilotEdge
Remarks:
Altitude:
(Current/Filed)
23,000ft
Speed:
(Current/Filed)
351kts
Departed: 12-Aug-19 06:34 PM
Arrived: 12-Aug-19 07:06 PM
Distance/Time
Traveled:
173nm/0:32
Distance/Time
To Go:
Arrived

Flight Plot

Page will automatically refresh every two minutes.

Flight plan parsing failed; only flown route is shown


Map Options




Map Legend


Flown Route
Filed Route
Departure Airport
Arrival Airport
Navaid (VOR, NDB)
Fix

Horizontal Profiles

Position Reports

Time Latitude Longitude Heading Altitude Ground
Speed
12-Aug-19 17:56 37.618800 -122.386684 181 28ft 0kts
12-Aug-19 17:57 37.618800 -122.386684 181 28ft 0kts
12-Aug-19 17:58 37.618800 -122.386684 181 28ft 0kts
12-Aug-19 17:59 37.618800 -122.386684 181 28ft 0kts
12-Aug-19 18:00 37.618800 -122.386684 181 28ft 0kts
12-Aug-19 18:01 37.618800 -122.386684 181 28ft 0kts
12-Aug-19 18:02 37.618800 -122.386684 181 28ft 0kts
12-Aug-19 18:03 37.618800 -122.386684 181 28ft 0kts
12-Aug-19 18:04 37.618800 -122.386684 181 28ft 0kts
12-Aug-19 18:05 37.618800 -122.386684 181 28ft 0kts
12-Aug-19 18:10 37.618800 -122.386684 181 28ft 0kts
12-Aug-19 18:11 37.618800 -122.386684 181 28ft 0kts
12-Aug-19 18:12 37.618800 -122.386684 181 28ft 0kts
12-Aug-19 18:13 37.618800 -122.386684 181 28ft 0kts
12-Aug-19 18:14 37.618800 -122.386684 181 28ft 0kts
12-Aug-19 18:15 37.618800 -122.386684 181 28ft 0kts
12-Aug-19 18:16 37.618800 -122.386684 181 28ft 0kts
12-Aug-19 18:17 37.618800 -122.386684 181 28ft 0kts
12-Aug-19 18:18 37.618800 -122.386684 181 28ft 0kts
12-Aug-19 18:19 37.618800 -122.386684 181 28ft 0kts
12-Aug-19 18:20 37.618800 -122.386684 181 28ft 0kts
12-Aug-19 18:21 37.618796 -122.386685 181 28ft 0kts
12-Aug-19 18:22 37.619176 -122.386663 194 28ft 2kts
12-Aug-19 18:23 37.619511 -122.386185 261 28ft 0kts
12-Aug-19 18:24 37.619510 -122.386186 261 28ft 0kts
12-Aug-19 18:25 37.619926 -122.386139 27 28ft 0kts
12-Aug-19 18:26 37.620613 -122.385665 27 28ft 1kts
12-Aug-19 18:27 37.620766 -122.384696 114 28ft 9kts
12-Aug-19 18:28 37.620017 -122.381141 117 28ft 10kts
12-Aug-19 18:29 37.617653 -122.378671 179 25ft 12kts
12-Aug-19 18:30 37.614521 -122.380104 208 28ft 14kts
12-Aug-19 18:31 37.609609 -122.383367 204 28ft 11kts
12-Aug-19 18:32 37.609458 -122.381893 27 27ft 3kts
12-Aug-19 18:33 37.636875 -122.362732 40 1077ft 182kts
12-Aug-19 18:34 37.666845 -122.309680 55 4506ft 217kts
12-Aug-19 18:35 37.703345 -122.241845 56 8005ft 282kts
12-Aug-19 18:36 37.775857 -122.195699 359 11817ft 341kts
12-Aug-19 18:37 37.871890 -122.188923 6 16331ft 359kts
12-Aug-19 18:38 37.973445 -122.172639 7 20240ft 381kts
12-Aug-19 18:39 38.081778 -122.154810 7 22999ft 424kts
12-Aug-19 18:40 38.207295 -122.134069 7 23001ft 465kts
12-Aug-19 18:41 38.336071 -122.113927 0 23049ft 468kts
12-Aug-19 18:42 38.466082 -122.121759 357 23028ft 467kts
12-Aug-19 18:43 38.595343 -122.130626 357 22999ft 464kts
12-Aug-19 18:44 38.723829 -122.139485 357 22999ft 461kts
12-Aug-19 18:46 38.850949 -122.148281 357 22999ft 458kts
12-Aug-19 18:47 38.978052 -122.157108 357 22999ft 457kts
12-Aug-19 18:48 39.104553 -122.165925 357 22999ft 455kts
12-Aug-19 18:49 39.230963 -122.174765 357 22999ft 454kts
12-Aug-19 18:50 39.356804 -122.183598 357 22999ft 454kts
12-Aug-19 18:51 39.482582 -122.192460 357 22969ft 454kts
12-Aug-19 18:52 39.609193 -122.201412 357 20896ft 439kts
12-Aug-19 18:53 39.723428 -122.209518 357 17545ft 386kts
12-Aug-19 18:54 39.825965 -122.216816 357 14371ft 349kts
12-Aug-19 18:55 39.919019 -122.223459 357 11279ft 317kts
12-Aug-19 18:56 40.003826 -122.229528 357 8761ft 287kts
12-Aug-19 18:57 40.082308 -122.235159 357 8139ft 286kts
12-Aug-19 18:58 40.164336 -122.245439 354 7530ft 299kts
12-Aug-19 18:59 40.246419 -122.256790 354 6818ft 291kts
12-Aug-19 19:00 40.325878 -122.267837 354 5550ft 276kts
12-Aug-19 19:01 40.399624 -122.276320 2 4106ft 258kts
12-Aug-19 19:02 40.466520 -122.273527 2 3266ft 232kts
12-Aug-19 19:03 40.527037 -122.270959 2 2746ft 184kts
12-Aug-19 19:04 40.566444 -122.288044 246 1947ft 160kts
12-Aug-19 19:05 40.524337 -122.294744 180 620ft 143kts
12-Aug-19 19:06 40.501693 -122.294907 192 491ft 12kts
12-Aug-19 19:06 40.502665 -122.296928 314 494ft 14kts
12-Aug-19 19:08 40.505446 -122.298483 314 494ft 5kts
12-Aug-19 19:08 40.505777 -122.298932 315 495ft 0kts
12-Aug-19 19:09 40.505777 -122.298932 315 495ft 0kts
12-Aug-19 19:11 40.505777 -122.298932 315 495ft 0kts
12-Aug-19 19:11 40.505777 -122.298932 315 495ft 0kts
12-Aug-19 19:12 40.505777 -122.298932 315 495ft 0kts
12-Aug-19 19:13 40.505777 -122.298932 315 495ft 0kts
12-Aug-19 19:14 40.505777 -122.298932 315 495ft 0kts

Navigation Log

Ident Type
Flight plan parsing failed, navigation log unavailable